sensor_id;sensor_type;location;lat;lon;timestamp;P1;durP1;ratioP1;P2;durP2;ratioP2
8675;SDS011;4375;52.486;13.424;2023-08-01T00:00:03;21.60;;;4.80;;
8675;SDS011;4375;52.486;13.424;2023-08-01T00:02:32;19.13;;;4.40;;
8675;SDS011;4375;52.486;13.424;2023-08-01T00:04:58;20.67;;;4.73;;
8675;SDS011;4375;52.486;13.424;2023-08-01T00:07:24;17.00;;;3.83;;
8675;SDS011;4375;52.486;13.424;2023-08-01T00:09:53;19.77;;;4.40;;
8675;SDS011;4375;52.486;13.424;2023-08-01T00:12:19;20.00;;;4.80;;
8675;SDS011;4375;52.486;13.424;2023-08-01T00:14:45;19.87;;;3.80;;
8675;SDS011;4375;52.486;13.424;2023-08-01T00:17:10;17.07;;;4.03;;
8675;SDS011;4375;52.486;13.424;2023-08-01T00:19:36;21.80;;;4.30;;
8675;SDS011;4375;52.486;13.424;2023-08-01T00:22:02;19.67;;;4.57;;
8675;SDS011;4375;52.486;13.424;2023-08-01T00:24:27;19.90;;;4.40;;
8675;SDS011;4375;52.486;13.424;2023-08-01T00:26:53;18.30;;;4.30;;
8675;SDS011;4375;52.486;13.424;2023-08-01T00:29:22;19.70;;;4.63;;
8675;SDS011;4375;52.486;13.424;2023-08-01T00:31:48;21.73;;;4.73;;
8675;SDS011;4375;52.486;13.424;2023-08-01T00:34:13;20.50;;;4.10;;
8675;SDS011;4375;52.486;13.424;2023-08-01T00:36:39;19.40;;;3.87;;
8675;SDS011;4375;52.486;13.424;2023-08-01T00:39:04;17.27;;;3.47;;
8675;SDS011;4375;52.486;13.424;2023-08-01T00:41:30;16.17;;;3.10;;
8675;SDS011;4375;52.486;13.424;2023-08-01T00:43:56;17.83;;;3.00;;
8675;SDS011;4375;52.486;13.424;2023-08-01T00:46:24;16.10;;;3.00;;
8675;SDS011;4375;52.486;13.424;2023-08-01T00:48:50;18.37;;;3.60;;
8675;SDS011;4375;52.486;13.424;2023-08-01T00:51:16;15.73;;;2.80;;
8675;SDS011;4375;52.486;13.424;2023-08-01T00:53:43;17.97;;;3.20;;
8675;SDS011;4375;52.486;13.424;2023-08-01T00:56:11;17.10;;;3.27;;
8675;SDS011;4375;52.486;13.424;2023-08-01T00:58:37;16.33;;;2.93;;
8675;SDS011;4375;52.486;13.424;2023-08-01T01:01:02;17.93;;;4.17;;
8675;SDS011;4375;52.486;13.424;2023-08-01T01:03:28;16.87;;;2.93;;
8675;SDS011;4375;52.486;13.424;2023-08-01T01:08:27;17.50;;;3.10;;
8675;SDS011;4375;52.486;13.424;2023-08-01T01:10:52;16.53;;;3.23;;
8675;SDS011;4375;52.486;13.424;2023-08-01T01:13:18;16.80;;;3.90;;
8675;SDS011;4375;52.486;13.424;2023-08-01T01:15:44;18.63;;;3.30;;
8675;SDS011;4375;52.486;13.424;2023-08-01T01:18:09;16.43;;;3.70;;
8675;SDS011;4375;52.486;13.424;2023-08-01T01:20:35;18.63;;;3.30;;
8675;SDS011;4375;52.486;13.424;2023-08-01T01:23:01;18.00;;;4.13;;
8675;SDS011;4375;52.486;13.424;2023-08-01T01:25:30;24.20;;;3.80;;
8675;SDS011;4375;52.486;13.424;2023-08-01T01:27:57;17.87;;;4.10;;
8675;SDS011;4375;52.486;13.424;2023-08-01T01:30:24;17.80;;;4.00;;
8675;SDS011;4375;52.486;13.424;2023-08-01T01:32:51;16.60;;;3.63;;
8675;SDS011;4375;52.486;13.424;2023-08-01T01:35:17;17.90;;;3.83;;
8675;SDS011;4375;52.486;13.424;2023-08-01T01:37:43;16.27;;;3.70;;
8675;SDS011;4375;52.486;13.424;2023-08-01T01:40:08;17.50;;;3.90;;
8675;SDS011;4375;52.486;13.424;2023-08-01T01:42:34;17.47;;;3.60;;
8675;SDS011;4375;52.486;13.424;2023-08-01T01:45:00;17.17;;;4.40;;
8675;SDS011;4375;52.486;13.424;2023-08-01T01:47:26;21.27;;;4.70;;
8675;SDS011;4375;52.486;13.424;2023-08-01T01:49:51;17.20;;;4.03;;
8675;SDS011;4375;52.486;13.424;2023-08-01T01:52:17;17.23;;;3.67;;
8675;SDS011;4375;52.486;13.424;2023-08-01T01:54:42;21.00;;;4.40;;
8675;SDS011;4375;52.486;13.424;2023-08-01T01:57:08;19.83;;;4.33;;
8675;SDS011;4375;52.486;13.424;2023-08-01T01:59:33;21.67;;;4.90;;
8675;SDS011;4375;52.486;13.424;2023-08-01T02:01:59;18.40;;;4.47;;
8675;SDS011;4375;52.486;13.424;2023-08-01T02:04:25;18.17;;;3.93;;
8675;SDS011;4375;52.486;13.424;2023-08-01T02:06:50;20.37;;;4.33;;
8675;SDS011;4375;52.486;13.424;2023-08-01T02:09:18;15.90;;;3.87;;
8675;SDS011;4375;52.486;13.424;2023-08-01T02:11:44;18.03;;;4.33;;
8675;SDS011;4375;52.486;13.424;2023-08-01T02:14:09;18.73;;;5.10;;
8675;SDS011;4375;52.486;13.424;2023-08-01T02:16:35;18.80;;;4.90;;
8675;SDS011;4375;52.486;13.424;2023-08-01T02:19:00;19.47;;;4.87;;
8675;SDS011;4375;52.486;13.424;2023-08-01T02:21:26;20.37;;;4.80;;
8675;SDS011;4375;52.486;13.424;2023-08-01T02:23:52;16.80;;;4.20;;
8675;SDS011;4375;52.486;13.424;2023-08-01T02:26:17;18.73;;;5.07;;
8675;SDS011;4375;52.486;13.424;2023-08-01T02:28:43;19.83;;;4.00;;
8675;SDS011;4375;52.486;13.424;2023-08-01T02:31:09;17.87;;;4.70;;
8675;SDS011;4375;52.486;13.424;2023-08-01T02:33:34;18.83;;;5.10;;
8675;SDS011;4375;52.486;13.424;2023-08-01T02:36:00;17.70;;;4.73;;
8675;SDS011;4375;52.486;13.424;2023-08-01T02:38:25;20.80;;;5.00;;
8675;SDS011;4375;52.486;13.424;2023-08-01T02:40:51;19.03;;;4.63;;
8675;SDS011;4375;52.486;13.424;2023-08-01T02:43:17;22.27;;;5.33;;
8675;SDS011;4375;52.486;13.424;2023-08-01T02:45:42;19.43;;;5.07;;
8675;SDS011;4375;52.486;13.424;2023-08-01T02:48:08;22.00;;;5.57;;
8675;SDS011;4375;52.486;13.424;2023-08-01T02:50:34;19.77;;;5.43;;
8675;SDS011;4375;52.486;13.424;2023-08-01T02:53:00;18.70;;;5.03;;
8675;SDS011;4375;52.486;13.424;2023-08-01T02:55:25;18.23;;;4.30;;
8675;SDS011;4375;52.486;13.424;2023-08-01T02:57:51;20.93;;;5.70;;
8675;SDS011;4375;52.486;13.424;2023-08-01T03:00:16;20.03;;;4.80;;
8675;SDS011;4375;52.486;13.424;2023-08-01T03:02:42;20.37;;;5.23;;
8675;SDS011;4375;52.486;13.424;2023-08-01T03:05:09;17.30;;;4.50;;
8675;SDS011;4375;52.486;13.424;2023-08-01T03:07:34;23.57;;;4.77;;
8675;SDS011;4375;52.486;13.424;2023-08-01T03:10:00;17.70;;;4.70;;
8675;SDS011;4375;52.486;13.424;2023-08-01T03:12:27;20.60;;;4.60;;
8675;SDS011;4375;52.486;13.424;2023-08-01T03:14:52;17.50;;;4.37;;
8675;SDS011;4375;52.486;13.424;2023-08-01T03:17:18;18.10;;;4.60;;
8675;SDS011;4375;52.486;13.424;2023-08-01T03:19:44;20.83;;;5.13;;
8675;SDS011;4375;52.486;13.424;2023-08-01T03:22:09;18.57;;;4.03;;
8675;SDS011;4375;52.486;13.424;2023-08-01T03:24:35;18.97;;;4.50;;
8675;SDS011;4375;52.486;13.424;2023-08-01T03:27:01;19.60;;;4.60;;
8675;SDS011;4375;52.486;13.424;2023-08-01T03:29:27;19.93;;;4.53;;
8675;SDS011;4375;52.486;13.424;2023-08-01T03:31:52;19.03;;;4.30;;
8675;SDS011;4375;52.486;13.424;2023-08-01T03:34:18;20.20;;;5.23;;
8675;SDS011;4375;52.486;13.424;2023-08-01T03:36:44;17.57;;;4.33;;
8675;SDS011;4375;52.486;13.424;2023-08-01T03:39:09;19.20;;;4.37;;
8675;SDS011;4375;52.486;13.424;2023-08-01T03:41:35;18.20;;;4.47;;
8675;SDS011;4375;52.486;13.424;2023-08-01T03:44:02;16.93;;;4.27;;
8675;SDS011;4375;52.486;13.424;2023-08-01T03:46:28;18.97;;;4.33;;
8675;SDS011;4375;52.486;13.424;2023-08-01T03:48:54;19.80;;;4.33;;
8675;SDS011;4375;52.486;13.424;2023-08-01T03:51:22;18.10;;;4.47;;
8675;SDS011;4375;52.486;13.424;2023-08-01T03:53:48;19.13;;;4.90;;
8675;SDS011;4375;52.486;13.424;2023-08-01T03:56:15;16.33;;;3.80;;
8675;SDS011;4375;52.486;13.424;2023-08-01T03:58:40;19.07;;;4.97;;
8675;SDS011;4375;52.486;13.424;2023-08-01T04:01:06;17.37;;;4.30;;
8675;SDS011;4375;52.486;13.424;2023-08-01T04:03:32;18.70;;;4.60;;
8675;SDS011;4375;52.486;13.424;2023-08-01T04:05:57;18.17;;;4.40;;
8675;SDS011;4375;52.486;13.424;2023-08-01T04:08:23;18.33;;;4.47;;
8675;SDS011;4375;52.486;13.424;2023-08-01T04:10:49;17.83;;;3.90;;
8675;SDS011;4375;52.486;13.424;2023-08-01T04:13:15;18.97;;;4.27;;
8675;SDS011;4375;52.486;13.424;2023-08-01T04:15:41;19.90;;;4.17;;
8675;SDS011;4375;52.486;13.424;2023-08-01T04:18:06;17.50;;;4.00;;
8675;SDS011;4375;52.486;13.424;2023-08-01T04:20:32;17.13;;;3.97;;
8675;SDS011;4375;52.486;13.424;2023-08-01T04:22:58;19.53;;;3.87;;
8675;SDS011;4375;52.486;13.424;2023-08-01T04:25:24;16.73;;;4.20;;
8675;SDS011;4375;52.486;13.424;2023-08-01T04:27:52;17.40;;;3.43;;
8675;SDS011;4375;52.486;13.424;2023-08-01T04:30:17;18.13;;;4.00;;
8675;SDS011;4375;52.486;13.424;2023-08-01T04:32:43;20.33;;;4.00;;
8675;SDS011;4375;52.486;13.424;2023-08-01T04:35:08;19.40;;;4.43;;
8675;SDS011;4375;52.486;13.424;2023-08-01T04:37:34;16.90;;;3.90;;
8675;SDS011;4375;52.486;13.424;2023-08-01T04:40:00;17.70;;;3.93;;
8675;SDS011;4375;52.486;13.424;2023-08-01T04:42:25;16.53;;;3.23;;
8675;SDS011;4375;52.486;13.424;2023-08-01T04:44:51;16.60;;;3.97;;
8675;SDS011;4375;52.486;13.424;2023-08-01T04:47:17;19.90;;;4.03;;
8675;SDS011;4375;52.486;13.424;2023-08-01T04:49:46;16.00;;;3.73;;
8675;SDS011;4375;52.486;13.424;2023-08-01T04:52:11;16.57;;;3.93;;
8675;SDS011;4375;52.486;13.424;2023-08-01T04:54:37;17.43;;;3.43;;
8675;SDS011;4375;52.486;13.424;2023-08-01T04:57:03;19.83;;;4.17;;
8675;SDS011;4375;52.486;13.424;2023-08-01T04:59:29;17.60;;;3.93;;
8675;SDS011;4375;52.486;13.424;2023-08-01T05:01:54;18.30;;;3.60;;
8675;SDS011;4375;52.486;13.424;2023-08-01T05:04:20;17.00;;;3.77;;
8675;SDS011;4375;52.486;13.424;2023-08-01T05:06:46;19.03;;;4.37;;
8675;SDS011;4375;52.486;13.424;2023-08-01T05:09:11;17.73;;;3.97;;
8675;SDS011;4375;52.486;13.424;2023-08-01T05:11:37;19.33;;;4.60;;
8675;SDS011;4375;52.486;13.424;2023-08-01T05:14:02;18.73;;;4.23;;
8675;SDS011;4375;52.486;13.424;2023-08-01T05:16:28;18.67;;;4.23;;
8675;SDS011;4375;52.486;13.424;2023-08-01T05:18:54;20.03;;;3.70;;
8675;SDS011;4375;52.486;13.424;2023-08-01T05:21:19;17.27;;;4.40;;
8675;SDS011;4375;52.486;13.424;2023-08-01T05:23:45;20.03;;;3.63;;
8675;SDS011;4375;52.486;13.424;2023-08-01T05:26:10;17.93;;;4.37;;
8675;SDS011;4375;52.486;13.424;2023-08-01T05:28:36;16.43;;;3.70;;
8675;SDS011;4375;52.486;13.424;2023-08-01T05:31:02;18.07;;;4.00;;
8675;SDS011;4375;52.486;13.424;2023-08-01T05:33:27;17.40;;;4.30;;
8675;SDS011;4375;52.486;13.424;2023-08-01T05:35:53;16.63;;;3.57;;
8675;SDS011;4375;52.486;13.424;2023-08-01T05:38:19;18.30;;;4.07;;
8675;SDS011;4375;52.486;13.424;2023-08-01T05:40:44;18.20;;;3.63;;
8675;SDS011;4375;52.486;13.424;2023-08-01T05:43:10;17.47;;;3.90;;
8675;SDS011;4375;52.486;13.424;2023-08-01T05:45:35;17.63;;;3.93;;
8675;SDS011;4375;52.486;13.424;2023-08-01T05:50:59;15.80;;;3.60;;
8675;SDS011;4375;52.486;13.424;2023-08-01T05:53:24;19.37;;;3.53;;
8675;SDS011;4375;52.486;13.424;2023-08-01T05:55:50;18.23;;;4.00;;
8675;SDS011;4375;52.486;13.424;2023-08-01T05:58:16;19.93;;;4.00;;
8675;SDS011;4375;52.486;13.424;2023-08-01T06:00:41;19.40;;;3.60;;
8675;SDS011;4375;52.486;13.424;2023-08-01T06:03:07;19.03;;;4.10;;
8675;SDS011;4375;52.486;13.424;2023-08-01T06:05:33;18.10;;;3.30;;
8675;SDS011;4375;52.486;13.424;2023-08-01T06:07:58;16.17;;;3.70;;
8675;SDS011;4375;52.486;13.424;2023-08-01T06:10:24;19.90;;;5.13;;
8675;SDS011;4375;52.486;13.424;2023-08-01T06:12:50;16.60;;;3.80;;
8675;SDS011;4375;52.486;13.424;2023-08-01T06:15:15;16.40;;;3.00;;
8675;SDS011;4375;52.486;13.424;2023-08-01T06:17:41;17.53;;;3.47;;
8675;SDS011;4375;52.486;13.424;2023-08-01T06:20:07;22.27;;;4.93;;
8675;SDS011;4375;52.486;13.424;2023-08-01T06:22:33;18.77;;;4.87;;
8675;SDS011;4375;52.486;13.424;2023-08-01T06:24:58;23.00;;;5.17;;
8675;SDS011;4375;52.486;13.424;2023-08-01T06:27:24;22.33;;;6.47;;
8675;SDS011;4375;52.486;13.424;2023-08-01T06:29:50;22.70;;;5.77;;
8675;SDS011;4375;52.486;13.424;2023-08-01T06:32:16;26.03;;;8.07;;
8675;SDS011;4375;52.486;13.424;2023-08-01T06:34:41;20.10;;;5.00;;
8675;SDS011;4375;52.486;13.424;2023-08-01T06:37:07;20.20;;;4.50;;
8675;SDS011;4375;52.486;13.424;2023-08-01T06:39:32;17.30;;;3.90;;
8675;SDS011;4375;52.486;13.424;2023-08-01T06:41:58;16.60;;;3.50;;
8675;SDS011;4375;52.486;13.424;2023-08-01T06:44:24;16.70;;;3.23;;
8675;SDS011;4375;52.486;13.424;2023-08-01T06:46:49;15.53;;;3.00;;
8675;SDS011;4375;52.486;13.424;2023-08-01T06:49:15;17.43;;;3.90;;
8675;SDS011;4375;52.486;13.424;2023-08-01T06:51:40;16.03;;;3.30;;
8675;SDS011;4375;52.486;13.424;2023-08-01T06:54:07;19.03;;;3.90;;
8675;SDS011;4375;52.486;13.424;2023-08-01T06:56:33;17.07;;;3.30;;
8675;SDS011;4375;52.486;13.424;2023-08-01T06:58:59;18.60;;;4.07;;
8675;SDS011;4375;52.486;13.424;2023-08-01T07:01:24;16.57;;;3.13;;
8675;SDS011;4375;52.486;13.424;2023-08-01T07:03:50;16.23;;;3.30;;
8675;SDS011;4375;52.486;13.424;2023-08-01T07:06:19;19.23;;;3.80;;
8675;SDS011;4375;52.486;13.424;2023-08-01T07:08:44;16.83;;;4.00;;
8675;SDS011;4375;52.486;13.424;2023-08-01T07:11:10;16.93;;;3.90;;
8675;SDS011;4375;52.486;13.424;2023-08-01T07:13:36;17.50;;;3.80;;
8675;SDS011;4375;52.486;13.424;2023-08-01T07:16:01;16.20;;;2.73;;
8675;SDS011;4375;52.486;13.424;2023-08-01T07:18:27;16.17;;;3.30;;
8675;SDS011;4375;52.486;13.424;2023-08-01T07:21:02;16.20;;;3.17;;
8675;SDS011;4375;52.486;13.424;2023-08-01T07:23:28;17.93;;;3.63;;
8675;SDS011;4375;52.486;13.424;2023-08-01T07:25:54;17.30;;;3.30;;
8675;SDS011;4375;52.486;13.424;2023-08-01T07:28:20;16.70;;;2.87;;
8675;SDS011;4375;52.486;13.424;2023-08-01T07:30:45;17.87;;;3.73;;
8675;SDS011;4375;52.486;13.424;2023-08-01T07:33:11;18.23;;;2.93;;
8675;SDS011;4375;52.486;13.424;2023-08-01T07:35:36;16.10;;;2.90;;
8675;SDS011;4375;52.486;13.424;2023-08-01T07:38:02;19.63;;;3.20;;
8675;SDS011;4375;52.486;13.424;2023-08-01T07:40:27;16.50;;;3.40;;
8675;SDS011;4375;52.486;13.424;2023-08-01T07:42:53;20.03;;;4.30;;
8675;SDS011;4375;52.486;13.424;2023-08-01T07:45:19;16.00;;;3.27;;
8675;SDS011;4375;52.486;13.424;2023-08-01T07:47:45;16.87;;;3.57;;
8675;SDS011;4375;52.486;13.424;2023-08-01T07:50:10;15.70;;;2.70;;
8675;SDS011;4375;52.486;13.424;2023-08-01T07:52:36;16.47;;;3.07;;
8675;SDS011;4375;52.486;13.424;2023-08-01T07:55:02;17.50;;;2.93;;
8675;SDS011;4375;52.486;13.424;2023-08-01T07:57:27;16.83;;;3.00;;
8675;SDS011;4375;52.486;13.424;2023-08-01T07:59:53;20.00;;;3.20;;
8675;SDS011;4375;52.486;13.424;2023-08-01T08:02:19;16.73;;;2.80;;
8675;SDS011;4375;52.486;13.424;2023-08-01T08:04:45;16.10;;;2.90;;
8675;SDS011;4375;52.486;13.424;2023-08-01T08:07:10;15.60;;;2.83;;
8675;SDS011;4375;52.486;13.424;2023-08-01T08:09:36;16.13;;;3.20;;
8675;SDS011;4375;52.486;13.424;2023-08-01T08:12:02;16.10;;;2.70;;
8675;SDS011;4375;52.486;13.424;2023-08-01T08:14:27;15.67;;;2.50;;
8675;SDS011;4375;52.486;13.424;2023-08-01T08:16:53;17.47;;;2.83;;
8675;SDS011;4375;52.486;13.424;2023-08-01T08:19:18;15.57;;;2.67;;
8675;SDS011;4375;52.486;13.424;2023-08-01T08:21:44;15.23;;;2.47;;
8675;SDS011;4375;52.486;13.424;2023-08-01T08:24:10;15.27;;;2.17;;
8675;SDS011;4375;52.486;13.424;2023-08-01T08:26:36;17.20;;;2.50;;
8675;SDS011;4375;52.486;13.424;2023-08-01T08:29:04;14.90;;;2.57;;
8675;SDS011;4375;52.486;13.424;2023-08-01T08:31:30;15.53;;;2.37;;
8675;SDS011;4375;52.486;13.424;2023-08-01T08:33:56;15.43;;;2.40;;
8675;SDS011;4375;52.486;13.424;2023-08-01T08:36:21;17.87;;;2.20;;
8675;SDS011;4375;52.486;13.424;2023-08-01T08:38:47;14.40;;;1.83;;
8675;SDS011;4375;52.486;13.424;2023-08-01T08:41:19;14.67;;;2.00;;
8675;SDS011;4375;52.486;13.424;2023-08-01T08:43:47;14.50;;;1.93;;
8675;SDS011;4375;52.486;13.424;2023-08-01T08:46:15;14.00;;;1.70;;
8675;SDS011;4375;52.486;13.424;2023-08-01T08:48:41;14.57;;;2.10;;
8675;SDS011;4375;52.486;13.424;2023-08-01T08:51:09;15.33;;;1.77;;
8675;SDS011;4375;52.486;13.424;2023-08-01T08:53:36;14.60;;;2.03;;
8675;SDS011;4375;52.486;13.424;2023-08-01T08:56:04;14.27;;;1.97;;
8675;SDS011;4375;52.486;13.424;2023-08-01T08:58:33;17.00;;;2.40;;
8675;SDS011;4375;52.486;13.424;2023-08-01T09:00:59;14.00;;;1.70;;
8675;SDS011;4375;52.486;13.424;2023-08-01T09:03:27;14.67;;;2.40;;
8675;SDS011;4375;52.486;13.424;2023-08-01T09:06:37;15.47;;;1.97;;
8675;SDS011;4375;52.486;13.424;2023-08-01T09:09:16;14.73;;;2.00;;
8675;SDS011;4375;52.486;13.424;2023-08-01T09:11:54;14.87;;;2.00;;
8675;SDS011;4375;52.486;13.424;2023-08-01T09:14:21;14.30;;;1.80;;
8675;SDS011;4375;52.486;13.424;2023-08-01T09:16:47;14.20;;;1.80;;
8675;SDS011;4375;52.486;13.424;2023-08-01T09:19:20;13.50;;;1.47;;
8675;SDS011;4375;52.486;13.424;2023-08-01T09:21:47;14.10;;;1.70;;
8675;SDS011;4375;52.486;13.424;2023-08-01T09:24:16;13.93;;;1.50;;
8675;SDS011;4375;52.486;13.424;2023-08-01T09:26:44;14.00;;;1.73;;
8675;SDS011;4375;52.486;13.424;2023-08-01T09:29:10;13.77;;;1.30;;
8675;SDS011;4375;52.486;13.424;2023-08-01T09:31:37;16.73;;;1.77;;
8675;SDS011;4375;52.486;13.424;2023-08-01T09:34:05;15.03;;;1.50;;
8675;SDS011;4375;52.486;13.424;2023-08-01T09:36:42;15.37;;;1.47;;
8675;SDS011;4375;52.486;13.424;2023-08-01T09:39:07;14.50;;;1.30;;
8675;SDS011;4375;52.486;13.424;2023-08-01T09:41:33;14.03;;;1.30;;
8675;SDS011;4375;52.486;13.424;2023-08-01T09:43:59;15.37;;;1.50;;
8675;SDS011;4375;52.486;13.424;2023-08-01T09:46:25;15.57;;;1.50;;
8675;SDS011;4375;52.486;13.424;2023-08-01T09:48:51;13.67;;;1.50;;
8675;SDS011;4375;52.486;13.424;2023-08-01T09:51:17;13.57;;;1.20;;
8675;SDS011;4375;52.486;13.424;2023-08-01T09:53:47;14.10;;;1.30;;
8675;SDS011;4375;52.486;13.424;2023-08-01T09:56:33;16.00;;;1.20;;
8675;SDS011;4375;52.486;13.424;2023-08-01T09:58:59;13.53;;;1.10;;
8675;SDS011;4375;52.486;13.424;2023-08-01T10:01:26;13.30;;;1.07;;
8675;SDS011;4375;52.486;13.424;2023-08-01T10:03:53;13.47;;;1.10;;
8675;SDS011;4375;52.486;13.424;2023-08-01T10:06:22;13.40;;;1.20;;
8675;SDS011;4375;52.486;13.424;2023-08-01T10:08:50;13.80;;;1.20;;
8675;SDS011;4375;52.486;13.424;2023-08-01T10:11:16;15.07;;;1.20;;
8675;SDS011;4375;52.486;13.424;2023-08-01T10:13:44;13.73;;;1.10;;
8675;SDS011;4375;52.486;13.424;2023-08-01T10:16:10;14.70;;;1.13;;
8675;SDS011;4375;52.486;13.424;2023-08-01T10:18:37;13.63;;;1.20;;
8675;SDS011;4375;52.486;13.424;2023-08-01T10:21:07;13.23;;;0.90;;
8675;SDS011;4375;52.486;13.424;2023-08-01T10:23:34;13.90;;;1.27;;
8675;SDS011;4375;52.486;13.424;2023-08-01T10:26:01;17.37;;;1.30;;
8675;SDS011;4375;52.486;13.424;2023-08-01T10:28:36;13.73;;;1.10;;
8675;SDS011;4375;52.486;13.424;2023-08-01T10:31:17;14.20;;;1.10;;
8675;SDS011;4375;52.486;13.424;2023-08-01T10:33:44;13.67;;;1.20;;
8675;SDS011;4375;52.486;13.424;2023-08-01T10:36:15;15.30;;;1.20;;
8675;SDS011;4375;52.486;13.424;2023-08-01T10:38:58;13.50;;;1.10;;
8675;SDS011;4375;52.486;13.424;2023-08-01T10:41:26;14.00;;;1.33;;
8675;SDS011;4375;52.486;13.424;2023-08-01T10:44:07;13.53;;;1.10;;
8675;SDS011;4375;52.486;13.424;2023-08-01T10:49:15;14.17;;;1.27;;
8675;SDS011;4375;52.486;13.424;2023-08-01T10:51:42;15.77;;;1.50;;
8675;SDS011;4375;52.486;13.424;2023-08-01T10:54:21;14.73;;;1.30;;
8675;SDS011;4375;52.486;13.424;2023-08-01T10:56:48;13.43;;;1.20;;
8675;SDS011;4375;52.486;13.424;2023-08-01T10:59:15;14.67;;;1.30;;
8675;SDS011;4375;52.486;13.424;2023-08-01T11:01:48;14.30;;;1.30;;
8675;SDS011;4375;52.486;13.424;2023-08-01T11:04:19;16.03;;;1.30;;
8675;SDS011;4375;52.486;13.424;2023-08-01T11:06:47;14.20;;;1.30;;
8675;SDS011;4375;52.486;13.424;2023-08-01T11:09:14;14.53;;;1.33;;
8675;SDS011;4375;52.486;13.424;2023-08-01T11:11:44;13.63;;;1.27;;
8675;SDS011;4375;52.486;13.424;2023-08-01T11:14:11;13.50;;;1.20;;
8675;SDS011;4375;52.486;13.424;2023-08-01T11:16:38;13.67;;;1.13;;
8675;SDS011;4375;52.486;13.424;2023-08-01T11:19:04;15.23;;;1.20;;
8675;SDS011;4375;52.486;13.424;2023-08-01T11:21:30;13.23;;;1.10;;
8675;SDS011;4375;52.486;13.424;2023-08-01T11:23:56;14.33;;;1.37;;
8675;SDS011;4375;52.486;13.424;2023-08-01T11:26:22;13.57;;;1.40;;
8675;SDS011;4375;52.486;13.424;2023-08-01T11:28:48;13.60;;;1.43;;
8675;SDS011;4375;52.486;13.424;2023-08-01T11:31:13;14.80;;;1.47;;
8675;SDS011;4375;52.486;13.424;2023-08-01T11:33:39;14.23;;;1.70;;
8675;SDS011;4375;52.486;13.424;2023-08-01T11:36:05;14.30;;;1.70;;
8675;SDS011;4375;52.486;13.424;2023-08-01T11:38:32;15.20;;;2.10;;
8675;SDS011;4375;52.486;13.424;2023-08-01T11:41:03;14.40;;;1.80;;
8675;SDS011;4375;52.486;13.424;2023-08-01T11:43:39;13.60;;;1.60;;
8675;SDS011;4375;52.486;13.424;2023-08-01T11:46:05;16.40;;;2.20;;
8675;SDS011;4375;52.486;13.424;2023-08-01T11:48:31;14.73;;;2.00;;
8675;SDS011;4375;52.486;13.424;2023-08-01T11:50:57;15.13;;;2.60;;
8675;SDS011;4375;52.486;13.424;2023-08-01T11:53:24;15.03;;;2.03;;
8675;SDS011;4375;52.486;13.424;2023-08-01T11:55:50;13.90;;;2.03;;
8675;SDS011;4375;52.486;13.424;2023-08-01T11:58:31;20.63;;;2.60;;
8675;SDS011;4375;52.486;13.424;2023-08-01T12:01:04;18.60;;;2.87;;
8675;SDS011;4375;52.486;13.424;2023-08-01T12:03:31;15.50;;;2.97;;
8675;SDS011;4375;52.486;13.424;2023-08-01T12:06:05;16.80;;;2.87;;
8675;SDS011;4375;52.486;13.424;2023-08-01T12:08:33;16.23;;;2.80;;
8675;SDS011;4375;52.486;13.424;2023-08-01T12:10:59;16.70;;;3.07;;
8675;SDS011;4375;52.486;13.424;2023-08-01T12:13:25;15.07;;;3.03;;
8675;SDS011;4375;52.486;13.424;2023-08-01T12:15:52;18.03;;;2.80;;
8675;SDS011;4375;52.486;13.424;2023-08-01T12:20:50;15.93;;;3.00;;
8675;SDS011;4375;52.486;13.424;2023-08-01T12:23:16;15.17;;;3.00;;
8675;SDS011;4375;52.486;13.424;2023-08-01T12:25:42;24.90;;;9.53;;
8675;SDS011;4375;52.486;13.424;2023-08-01T12:28:08;15.90;;;2.80;;
8675;SDS011;4375;52.486;13.424;2023-08-01T12:30:33;17.97;;;3.13;;
8675;SDS011;4375;52.486;13.424;2023-08-01T12:32:59;16.20;;;2.90;;
8675;SDS011;4375;52.486;13.424;2023-08-01T12:35:25;18.80;;;2.80;;
8675;SDS011;4375;52.486;13.424;2023-08-01T12:37:52;15.10;;;3.03;;
8675;SDS011;4375;52.486;13.424;2023-08-01T12:40:18;15.77;;;3.27;;
8675;SDS011;4375;52.486;13.424;2023-08-01T12:42:44;28.40;;;13.53;;
8675;SDS011;4375;52.486;13.424;2023-08-01T12:45:10;19.67;;;4.80;;
8675;SDS011;4375;52.486;13.424;2023-08-01T12:47:35;16.20;;;3.60;;
8675;SDS011;4375;52.486;13.424;2023-08-01T12:50:01;16.60;;;2.90;;
8675;SDS011;4375;52.486;13.424;2023-08-01T12:52:26;19.80;;;4.10;;
8675;SDS011;4375;52.486;13.424;2023-08-01T12:54:52;19.27;;;3.60;;
8675;SDS011;4375;52.486;13.424;2023-08-01T12:57:18;17.90;;;3.67;;
8675;SDS011;4375;52.486;13.424;2023-08-01T12:59:44;17.13;;;3.50;;
8675;SDS011;4375;52.486;13.424;2023-08-01T13:02:10;18.23;;;3.30;;
8675;SDS011;4375;52.486;13.424;2023-08-01T13:04:35;17.60;;;3.67;;
8675;SDS011;4375;52.486;13.424;2023-08-01T13:07:01;17.30;;;3.10;;
8675;SDS011;4375;52.486;13.424;2023-08-01T13:09:26;17.97;;;3.23;;
8675;SDS011;4375;52.486;13.424;2023-08-01T13:11:52;16.17;;;2.93;;
8675;SDS011;4375;52.486;13.424;2023-08-01T13:14:18;18.37;;;3.40;;
8675;SDS011;4375;52.486;13.424;2023-08-01T13:16:44;17.87;;;3.43;;
8675;SDS011;4375;52.486;13.424;2023-08-01T13:19:09;17.73;;;2.77;;
8675;SDS011;4375;52.486;13.424;2023-08-01T13:21:35;16.23;;;2.93;;
8675;SDS011;4375;52.486;13.424;2023-08-01T13:24:00;20.37;;;3.23;;
8675;SDS011;4375;52.486;13.424;2023-08-01T13:26:33;16.40;;;3.40;;
8675;SDS011;4375;52.486;13.424;2023-08-01T13:28:59;17.70;;;3.57;;
8675;SDS011;4375;52.486;13.424;2023-08-01T13:31:27;19.30;;;3.43;;
8675;SDS011;4375;52.486;13.424;2023-08-01T13:33:53;16.00;;;3.03;;
8675;SDS011;4375;52.486;13.424;2023-08-01T13:36:20;16.10;;;3.60;;
8675;SDS011;4375;52.486;13.424;2023-08-01T13:38:46;17.10;;;3.00;;
8675;SDS011;4375;52.486;13.424;2023-08-01T13:41:11;17.03;;;3.53;;
8675;SDS011;4375;52.486;13.424;2023-08-01T13:43:37;18.43;;;3.30;;
8675;SDS011;4375;52.486;13.424;2023-08-01T13:46:12;17.70;;;3.80;;
8675;SDS011;4375;52.486;13.424;2023-08-01T13:48:40;18.37;;;3.00;;
8675;SDS011;4375;52.486;13.424;2023-08-01T13:51:06;16.43;;;3.10;;
8675;SDS011;4375;52.486;13.424;2023-08-01T13:53:32;16.60;;;3.40;;
8675;SDS011;4375;52.486;13.424;2023-08-01T13:55:58;15.47;;;3.10;;
8675;SDS011;4375;52.486;13.424;2023-08-01T13:58:24;17.90;;;3.33;;
8675;SDS011;4375;52.486;13.424;2023-08-01T14:00:50;17.67;;;2.70;;
8675;SDS011;4375;52.486;13.424;2023-08-01T14:03:15;17.37;;;3.30;;
8675;SDS011;4375;52.486;13.424;2023-08-01T14:05:41;16.53;;;3.13;;
8675;SDS011;4375;52.486;13.424;2023-08-01T14:08:06;17.13;;;3.33;;
8675;SDS011;4375;52.486;13.424;2023-08-01T14:10:32;17.27;;;2.67;;
8675;SDS011;4375;52.486;13.424;2023-08-01T14:12:58;17.80;;;3.10;;
8675;SDS011;4375;52.486;13.424;2023-08-01T14:15:23;15.43;;;2.70;;
8675;SDS011;4375;52.486;13.424;2023-08-01T14:17:49;16.80;;;3.53;;
8675;SDS011;4375;52.486;13.424;2023-08-01T14:20:15;17.40;;;3.77;;
8675;SDS011;4375;52.486;13.424;2023-08-01T14:22:43;15.50;;;2.97;;
8675;SDS011;4375;52.486;13.424;2023-08-01T14:25:09;15.40;;;2.80;;
8675;SDS011;4375;52.486;13.424;2023-08-01T14:27:35;17.27;;;2.90;;
8675;SDS011;4375;52.486;13.424;2023-08-01T14:30:01;16.80;;;2.97;;
8675;SDS011;4375;52.486;13.424;2023-08-01T14:32:27;15.33;;;3.20;;
8675;SDS011;4375;52.486;13.424;2023-08-01T14:34:53;18.70;;;3.50;;
8675;SDS011;4375;52.486;13.424;2023-08-01T14:37:19;18.03;;;2.97;;
8675;SDS011;4375;52.486;13.424;2023-08-01T14:39:48;15.70;;;3.17;;
8675;SDS011;4375;52.486;13.424;2023-08-01T14:42:15;18.13;;;2.93;;
8675;SDS011;4375;52.486;13.424;2023-08-01T14:44:41;17.00;;;2.90;;
8675;SDS011;4375;52.486;13.424;2023-08-01T14:47:06;17.60;;;3.43;;
8675;SDS011;4375;52.486;13.424;2023-08-01T14:49:32;16.20;;;3.07;;
8675;SDS011;4375;52.486;13.424;2023-08-01T14:51:57;17.30;;;3.10;;
8675;SDS011;4375;52.486;13.424;2023-08-01T14:54:23;15.80;;;2.70;;